Historique des stations

Station météo de Issoudun

Altitude de la station : 141 m







Données météorologiques pour le 17/01/2021
Date
Heure
Températures Humidité Point de rosée Vitesse
du vent
Direction Rafales Windchill Pression Pluviométrie
Cumul
Date
Heure
Températures Humidité Point de rosée Vitesse
du vent
Direction Rafales Windchill Pression Pluviométrie
Cumul
17/01/2021 13:597.8 °C78 %4.4 °C21 km/hNNO34 km/h3.9 1025 hPa1 mm
17/01/2021 13:448.1 °C79 %4.4 °C24 km/hNO34 km/h4.4 1025 hPa1 mm
17/01/2021 13:297.9 °C80 %4.4 °C24 km/hNO34 km/h3.9 1025 hPa1 mm
17/01/2021 13:147.8 °C81 %5.0 °C14 km/hNO34 km/h5.0 1025 hPa1 mm
17/01/2021 13:007.6 °C83 %5.0 °C21 km/hNO34 km/h3.9 1025 hPa1 mm
17/01/2021 12:457.8 °C83 %5.0 °C26 km/hNO34 km/h3.3 1025 hPa1 mm
17/01/2021 12:307.6 °C86 %5.6 °C18 km/hONO34 km/h4.4 1025 hPa1 mm
17/01/2021 12:157.3 °C87 %5.6 °C21 km/hONO34 km/h3.3 1025 hPa1 mm
17/01/2021 12:007.1 °C88 %5.0 °C23 km/hNO34 km/h3.3 1025 hPa1 mm
17/01/2021 11:456.7 °C90 %5.0 °C23 km/hNNO31 km/h2.8 1025 hPa1 mm
17/01/2021 11:306.3 °C93 %5.6 °C21 km/hONO26 km/h2.2 1025 hPa1 mm
17/01/2021 11:145.6 °C94 %5.0 °C13 km/hO24 km/h2.8 1025 hPa1 mm
17/01/2021 10:595.7 °C94 %5.0 °C13 km/hO24 km/h2.8 1024 hPa1 mm
17/01/2021 10:446.2 °C95 %5.6 °C18 km/hO24 km/h2.8 1024 hPa1 mm
17/01/2021 10:295.7 °C95 %5.0 °C14 km/hO23 km/h2.2 1024 hPa1 mm
17/01/2021 10:145.1 °C95 %4.4 °C11 km/hO23 km/h2.2 1023 hPa1 mm
17/01/2021 09:595.2 °C95 %4.4 °C11 km/hO23 km/h2.2 1023 hPa1 mm
17/01/2021 09:445.0 °C95 %4.4 °C14 km/hONO21 km/h1.7 1023 hPa1 mm
17/01/2021 09:294.9 °C95 %4.4 °C6 km/hO21 km/h3.9 1023 hPa1 mm
17/01/2021 09:144.9 °C95 %4.4 °C8 km/hONO21 km/h2.8 1023 hPa0.8 mm
17/01/2021 08:594.8 °C95 %3.9 °C13 km/hONO21 km/h1.7 1023 hPa0.8 mm
17/01/2021 08:444.7 °C95 %3.9 °C10 km/hO21 km/h2.8 1022 hPa0.8 mm
17/01/2021 08:294.7 °C95 %3.9 °C13 km/hONO21 km/h1.7 1022 hPa0.6 mm
17/01/2021 08:144.6 °C95 %3.9 °C16 km/hONO18 km/h1.1 1022 hPa0.6 mm
17/01/2021 07:594.6 °C95 %3.9 °C13 km/hO16 km/h1.7 1022 hPa0.6 mm
17/01/2021 07:444.5 °C95 %3.9 °C10 km/hO16 km/h2.2 1022 hPa0.6 mm
17/01/2021 07:294.4 °C95 %3.9 °C13 km/hO16 km/h1.7 1022 hPa0.6 mm
17/01/2021 07:144.3 °C95 %3.3 °C10 km/hO16 km/h2.2 1022 hPa0.6 mm
17/01/2021 06:594.6 °C95 %3.9 °C11 km/hO16 km/h1.7 1021 hPa0.6 mm
17/01/2021 06:444.6 °C95 %3.9 °C13 km/hONO16 km/h1.7 1021 hPa0.6 mm
17/01/2021 06:294.5 °C95 %3.9 °C11 km/hO16 km/h1.7 1021 hPa0.6 mm
17/01/2021 06:144.4 °C95 %3.9 °C6 km/hO16 km/h2.8 1021 hPa0.6 mm
17/01/2021 05:594.3 °C95 %3.3 °C6 km/hO16 km/h2.8 1021 hPa0.6 mm
17/01/2021 05:444.3 °C95 %3.3 °C10 km/hO16 km/h2.2 1021 hPa0.6 mm
17/01/2021 05:293.9 °C95 %3.3 °C11 km/hO16 km/h1.1 1021 hPa0.6 mm
17/01/2021 05:143.6 °C95 %2.8 °C8 km/hOSO16 km/h1.7 1021 hPa0.6 mm
17/01/2021 05:003.1 °C95 %2.2 °C6 km/hOSO16 km/h1.7 1021 hPa0.6 mm
17/01/2021 04:452.9 °C95 %2.2 °C6 km/hOSO16 km/h1.1 1021 hPa0.6 mm
17/01/2021 04:303.8 °C95 %3.3 °C10 km/hO16 km/h1.1 1021 hPa0.6 mm
17/01/2021 04:154.2 °C95 %3.3 °C10 km/hO16 km/h2.2 1021 hPa0.6 mm
17/01/2021 04:004.3 °C95 %3.9 °C6 km/hOSO16 km/h2.8 1020 hPa0.6 mm
17/01/2021 03:454.2 °C95 %3.3 °C5 km/hO16 km/h3.3 1021 hPa0.6 mm
17/01/2021 03:304.9 °C95 %4.4 °C6 km/hOSO16 km/h3.9 1021 hPa0.6 mm
17/01/2021 03:145.2 °C95 %4.4 °C10 km/hO16 km/h2.8 1021 hPa0.6 mm
17/01/2021 02:595.2 °C95 %4.4 °C13 km/hO16 km/h1.7 1021 hPa0.6 mm
17/01/2021 02:445.6 °C95 %5.0 °C6 km/hOSO16 km/h4.4 1020 hPa0.6 mm
17/01/2021 02:295.6 °C95 %5.0 °C8 km/hOSO16 km/h3.3 1020 hPa0.6 mm
17/01/2021 02:145.6 °C95 %5.0 °C10 km/hO16 km/h3.3 1020 hPa0.6 mm
17/01/2021 01:595.6 °C95 %5.0 °C6 km/hO16 km/h4.4 1020 hPa0.4 mm
17/01/2021 01:445.6 °C95 %5.0 °C6 km/hOSO16 km/h4.4 1020 hPa0.4 mm
17/01/2021 01:295.5 °C95 %5.0 °C6 km/hO16 km/h4.4 1020 hPa0.4 mm
17/01/2021 01:145.4 °C95 %5.0 °C8 km/hOSO16 km/h3.3 1020 hPa0.4 mm
17/01/2021 00:595.4 °C95 %5.0 °C6 km/hOSO16 km/h4.4 1020 hPa0.4 mm
17/01/2021 00:445.4 °C95 %4.4 °C6 km/hOSO16 km/h4.4 1020 hPa0.4 mm
17/01/2021 00:295.6 °C95 %5.0 °C5 km/hOSO16 km/h5.0 1020 hPa0.4 mm
17/01/2021 00:145.7 °C95 %5.0 °C13 km/hO16 km/h2.8 1020 hPa0.2 mm


Minima :

Température : 2.9 °C
Humidité : 78 %
Point de rosée : 2.2 °C
Vent moyen : 5 km/h
Windchill : 1.1
Pression atm. : 1020 hPa
Maxima :

Température : 8.1 °C
Humidité : 95 %
Point de rosée : 5.6 °C
Vent moyen : 26 km/h
Windchill : 5.0
Pression atm. : 1025 hPa
Rafales max : 34 km/h
Cumul de pluie sur 24H : 1 mm

Issoudun est une commune du département Indre (36).
La station météorologique du réseau de l'association la plus proche de Issoudun est celle de Ménétréols-sous-Vatan



Icône Facebook Association Météo Centre Icône Twitter Association Météo Centre Icône Chaîne Youtube Association Météo Centre Icône contact Association Météo Centre Icône Insta Association Météo Centre